Time;durP1;ratioP1;P1;durP2;ratioP2;P2;SDS_P1;SDS_P2;PMS_P1;PMS_P2;Temp;Humidity;BMP_temperature;BMP_pressure;BME280_temperature;BME280_humidity;BME280_pressure;Samples;Min_cycle;Max_cycle;Signal;HPM_P1;HPM_P2
2021/12/06 00:01:08;;;;;;;4.88;3.70;;;;;;;15.38;41.78;92312.78;4971715;28;20035;-89
2021/12/06 00:03:46;;;;;;;6.80;4.63;;;;;;;15.38;42.03;92315.50;5006975;28;20040;-87
2021/12/06 00:06:12;;;;;;;6.32;4.10;;;;;;;15.40;41.92;92311.00;5010750;28;20092;-87
2021/12/06 00:08:37;;;;;;;5.63;3.55;;;;;;;15.35;41.99;92319.28;4994975;28;20412;-87
2021/12/06 00:11:07;;;;;;;4.53;3.08;;;;;;;15.37;42.17;92314.75;5002892;28;20038;-87
2021/12/06 00:13:35;;;;;;;3.80;3.00;;;;;;;15.40;41.75;92321.16;4977246;28;20181;-87
2021/12/06 00:16:06;;;;;;;4.40;3.20;;;;;;;15.36;41.75;92309.84;4982363;28;20037;-87
2021/12/06 00:18:31;;;;;;;5.10;3.63;;;;;;;15.36;41.59;92310.59;4995314;28;20128;-86
2021/12/06 00:20:56;;;;;;;4.72;3.20;;;;;;;15.37;41.91;92317.47;5011486;28;20070;-86
2021/12/06 00:23:22;;;;;;;5.32;3.10;;;;;;;15.40;41.82;92313.72;4982259;28;20598;-87
2021/12/06 00:25:47;;;;;;;5.75;4.07;;;;;;;15.40;42.29;92313.72;5004697;28;20042;-86
2021/12/06 00:28:13;;;;;;;7.10;4.28;;;;;;;15.35;42.16;92311.84;5003881;28;20043;-87
2021/12/06 00:30:38;;;;;;;7.45;4.95;;;;;;;15.38;42.07;92320.94;5007703;28;20718;-86
2021/12/06 00:33:03;;;;;;;5.32;3.63;;;;;;;15.32;42.01;92315.59;4991111;28;20118;-86
2021/12/06 00:35:29;;;;;;;7.53;5.68;;;;;;;15.37;42.05;92311.34;4972335;28;20050;-87
2021/12/06 00:37:58;;;;;;;6.43;4.20;;;;;;;15.35;41.73;92319.28;5004302;28;20054;-86
2021/12/06 00:40:32;;;;;;;7.03;4.13;;;;;;;15.34;42.06;92315.09;5002875;28;20486;-88
2021/12/06 00:42:57;;;;;;;4.22;2.92;;;;;;;15.35;42.08;92322.00;5003351;28;20038;-87
2021/12/06 00:45:23;;;;;;;5.75;3.70;;;;;;;15.37;41.90;92314.06;5004136;28;20038;-87
2021/12/06 00:47:49;;;;;;;10.00;6.47;;;;;;;15.48;41.71;92318.59;5007166;28;20031;-87
2021/12/06 00:50:16;;;;;;;6.63;4.80;;;;;;;15.37;41.67;92324.94;4974518;28;20085;-86
2021/12/06 00:52:41;;;;;;;4.38;2.80;;;;;;;15.40;41.67;92327.34;4975129;28;20112;-90
2021/12/06 00:55:07;;;;;;;5.35;3.67;;;;;;;15.37;41.57;92324.94;4990809;28;20042;-90
2021/12/06 00:57:33;;;;;;;10.57;6.72;;;;;;;15.37;42.06;92333.13;4975267;28;20325;-87
2021/12/06 00:59:58;;;;;;;3.95;2.80;;;;;;;15.44;41.87;92335.22;4974553;28;20517;-91
2021/12/06 01:02:24;;;;;;;8.77;5.53;;;;;;;15.36;41.83;92323.47;5000005;28;20034;-87
2021/12/06 01:04:49;;;;;;;7.35;5.45;;;;;;;15.35;41.98;92330.91;5010659;28;20049;-89
2021/12/06 01:07:14;;;;;;;5.47;3.60;;;;;;;15.33;42.01;92327.22;4993961;28;20108;-87
2021/12/06 01:09:40;;;;;;;8.70;6.30;;;;;;;15.35;42.04;92332.91;5010126;28;20046;-87
2021/12/06 01:12:06;;;;;;;7.80;5.03;;;;;;;15.33;42.18;92332.66;4997452;28;20035;-87
2021/12/06 01:14:31;;;;;;;5.00;3.88;;;;;;;15.33;41.83;92333.41;4991158;28;20061;-87
2021/12/06 01:16:57;;;;;;;5.93;4.55;;;;;;;15.35;41.65;92330.91;4988571;28;20033;-87
2021/12/06 01:19:28;;;;;;;6.50;4.57;;;;;;;15.33;42.17;92336.13;4993706;28;20057;-88
2021/12/06 01:22:10;;;;;;;5.65;3.75;;;;;;;15.37;42.01;92338.56;5011370;28;20492;-88
2021/12/06 01:24:42;;;;;;;5.40;3.88;;;;;;;15.40;41.79;92346.41;4994425;28;20122;-87
2021/12/06 01:40:13;;;;;;;4.28;3.10;;;;;;;15.37;41.97;92365.78;4990313;28;20524;-87
2021/12/06 01:42:38;;;;;;;11.98;8.18;;;;;;;15.37;41.69;92357.63;4974317;28;20038;-86
2021/12/06 01:45:04;;;;;;;6.10;4.00;;;;;;;15.36;41.89;92370.50;4973072;28;20045;-87
2021/12/06 01:47:33;;;;;;;5.88;3.75;;;;;;;15.35;42.09;92357.41;4973448;28;20248;-87
2021/12/06 01:50:00;;;;;;;3.97;2.70;;;;;;;15.35;41.84;92360.84;4974568;28;20493;-90
2021/12/06 01:52:29;;;;;;;4.32;2.88;;;;;;;15.36;41.68;92369.75;4989693;28;20180;-87
2021/12/06 01:54:55;;;;;;;10.35;5.60;;;;;;;15.35;42.02;92371.00;4974364;28;20504;-87
2021/12/06 01:57:21;;;;;;;5.05;3.17;;;;;;;15.39;41.69;92366.72;4954010;28;20039;-88
2021/12/06 01:59:47;;;;;;;7.20;4.65;;;;;;;15.43;41.51;92374.59;4953900;28;20027;-87
2021/12/06 02:02:12;;;;;;;4.20;3.22;;;;;;;15.37;41.74;92363.78;4970039;28;20043;-91
2021/12/06 02:04:38;;;;;;;6.13;3.58;;;;;;;15.36;41.79;92361.59;4954556;28;20418;-86
2021/12/06 02:07:06;;;;;;;5.38;3.78;;;;;;;15.34;41.87;92366.81;4937178;28;20062;-90
2021/12/06 02:09:31;;;;;;;6.80;4.82;;;;;;;15.33;41.97;92366.09;4989983;28;20034;-88
2021/12/06 02:12:01;;;;;;;5.18;3.40;;;;;;;15.30;42.06;92372.56;4987960;28;20045;-87
2021/12/06 02:19:35;;;;;;;4.28;3.33;;;;;;;15.36;41.86;92370.50;4989869;28;20033;-87
2021/12/06 02:22:01;;;;;;;4.68;2.88;;;;;;;15.39;41.49;92372.16;4972924;28;20058;-87
2021/12/06 02:24:28;;;;;;;5.28;3.72;;;;;;;15.35;41.68;92385.38;4956182;28;20046;-89
2021/12/06 02:26:53;;;;;;;7.50;5.30;;;;;;;15.36;41.68;92378.66;4972767;28;20031;-86
2021/12/06 02:29:19;;;;;;;5.28;3.88;;;;;;;15.40;41.86;92381.81;4972508;28;20038;-88
2021/12/06 02:31:45;;;;;;;7.43;5.40;;;;;;;15.37;41.87;92382.13;4988933;28;20026;-86
2021/12/06 02:34:10;;;;;;;4.70;2.72;;;;;;;15.36;41.70;92377.94;4988809;28;20421;-88
2021/12/06 02:36:35;;;;;;;8.40;6.15;;;;;;;15.33;41.86;92366.09;4989008;28;20611;-87
2021/12/06 02:39:01;;;;;;;5.45;3.20;;;;;;;15.37;41.71;92365.78;4972771;28;20038;-88
2021/12/06 02:41:27;;;;;;;5.38;3.67;;;;;;;15.38;41.47;92370.69;4957390;28;20073;-87
2021/12/06 02:43:53;;;;;;;6.07;3.28;;;;;;;15.38;41.63;92365.25;4973264;28;20038;-90
2021/12/06 02:46:19;;;;;;;5.75;3.47;;;;;;;15.35;41.91;92369.03;4972587;28;20038;-87
2021/12/06 02:48:44;;;;;;;4.22;3.30;;;;;;;15.38;41.56;92364.50;4972234;28;20073;-86
2021/12/06 02:51:10;;;;;;;3.90;2.95;;;;;;;15.36;41.76;92373.22;4988894;28;20468;-86
2021/12/06 02:53:36;;;;;;;4.97;3.40;;;;;;;15.38;41.55;92362.53;4972903;28;20051;-86
2021/12/06 02:56:05;;;;;;;12.10;7.75;;;;;;;15.41;41.80;92372.38;4988985;28;20200;-87
2021/12/06 03:01:04;;;;;;;7.15;4.78;;;;;;;15.35;41.79;92377.19;4985239;28;20057;-88
2021/12/06 03:03:29;;;;;;;5.78;3.38;;;;;;;15.36;42.11;92372.50;5007143;28;20041;-87
2021/12/06 03:05:55;;;;;;;3.40;2.50;;;;;;;15.33;42.07;92371.53;4991877;28;20105;-87
2021/12/06 03:08:35;;;;;;;4.32;2.97;;;;;;;15.34;42.16;92372.25;4991504;28;20037;-87
2021/12/06 03:11:03;;;;;;;5.20;3.67;;;;;;;15.38;42.03;92367.97;4992067;28;20172;-87
2021/12/06 03:13:28;;;;;;;5.60;3.25;;;;;;;15.37;41.54;92365.78;4951528;28;20038;-87
2021/12/06 03:15:54;;;;;;;5.53;3.00;;;;;;;15.37;41.87;92368.50;4994147;28;20080;-86
2021/12/06 03:18:19;;;;;;;5.28;3.90;;;;;;;15.37;41.81;92366.50;5007966;28;20034;-88
2021/12/06 03:20:44;;;;;;;5.40;3.60;;;;;;;15.35;41.93;92363.59;4991630;28;20456;-87
2021/12/06 03:23:10;;;;;;;3.88;2.88;;;;;;;15.34;41.71;92369.53;4988978;28;20042;-86
2021/12/06 03:25:35;;;;;;;5.97;4.15;;;;;;;15.35;41.59;92374.47;4991834;28;20420;-87
2021/12/06 03:28:01;;;;;;;4.68;2.97;;;;;;;15.34;41.85;92370.28;4972965;28;20042;-87
2021/12/06 03:30:26;;;;;;;5.18;3.40;;;;;;;15.37;41.70;92374.66;4987643;28;20394;-87
2021/12/06 03:32:52;;;;;;;6.40;4.38;;;;;;;15.34;41.73;92370.28;4988551;28;20448;-87
2021/12/06 03:35:17;;;;;;;7.00;4.18;;;;;;;15.35;41.44;92379.19;4987958;28;20061;-88
2021/12/06 03:37:43;;;;;;;5.50;3.55;;;;;;;15.34;41.86;92375.72;4988107;28;20031;-86
2021/12/06 03:40:09;;;;;;;4.60;3.35;;;;;;;15.33;41.58;92370.78;4986608;28;20077;-87
2021/12/06 03:42:34;;;;;;;5.97;3.45;;;;;;;15.35;41.86;92374.47;4972219;28;20042;-87
2021/12/06 03:44:59;;;;;;;7.10;5.05;;;;;;;15.36;41.70;92378.66;4988075;28;20030;-87
2021/12/06 03:47:28;;;;;;;8.07;5.15;;;;;;;15.34;41.93;92372.25;4971816;28;20050;-87
2021/12/06 03:49:53;;;;;;;5.18;3.08;;;;;;;15.36;41.93;92380.66;4987354;28;20089;-90
2021/12/06 03:52:19;;;;;;;5.28;3.47;;;;;;;15.38;41.56;92384.31;4962047;28;20144;-87
2021/12/06 03:54:44;;;;;;;3.88;2.67;;;;;;;15.36;41.30;92381.38;4992005;28;20034;-87
2021/12/06 03:57:09;;;;;;;5.93;3.70;;;;;;;15.39;42.07;92388.50;5007223;28;20033;-87
2021/12/06 03:59:35;;;;;;;4.13;2.97;;;;;;;15.41;41.72;92388.72;4990751;28;20428;-87
2021/12/06 04:02:00;;;;;;;6.53;5.20;;;;;;;15.37;41.88;92390.28;4980865;28;20034;-87
2021/12/06 04:04:26;;;;;;;4.35;2.88;;;;;;;15.35;41.72;92393.53;4991494;28;20413;-87
2021/12/06 04:06:51;;;;;;;6.75;4.80;;;;;;;15.33;41.63;92398.75;5007931;28;20092;-88
2021/12/06 04:09:17;;;;;;;5.53;3.58;;;;;;;15.36;41.43;92395.00;4990832;28;20125;-91
2021/12/06 04:11:42;;;;;;;3.60;2.78;;;;;;;15.34;41.75;92402.94;5008589;28;20034;-91
2021/12/06 04:14:07;;;;;;;5.18;3.35;;;;;;;15.33;41.89;92404.19;4994270;28;20045;-87
2021/12/06 04:16:33;;;;;;;5.63;3.80;;;;;;;15.34;41.71;92411.13;4977385;28;20058;-87
2021/12/06 04:18:58;;;;;;;7.20;3.70;;;;;;;15.33;41.57;92417.81;5001184;28;20351;-91
2021/12/06 04:21:24;;;;;;;6.18;3.30;;;;;;;15.32;41.95;92419.06;5000495;28;20038;-87
2021/12/06 04:23:50;;;;;;;3.90;3.13;;;;;;;15.32;42.06;92424.50;5000975;28;20106;-90
2021/12/06 04:26:16;;;;;;;10.93;6.60;;;;;;;15.29;41.93;92416.63;5018424;28;20058;-88
2021/12/06 04:28:47;;;;;;;3.88;2.65;;;;;;;15.33;41.84;92422.53;4987861;28;20040;-87
2021/12/06 04:31:13;;;;;;;4.30;3.13;;;;;;;15.32;41.91;92434.66;4971632;28;20073;-87
2021/12/06 04:33:39;;;;;;;8.20;4.80;;;;;;;15.31;41.94;92435.91;4988084;28;20034;-87
2021/12/06 04:36:04;;;;;;;5.03;3.13;;;;;;;15.33;41.50;92439.59;4971110;28;20042;-87
2021/12/06 04:38:29;;;;;;;4.10;2.75;;;;;;;15.34;41.65;92434.88;4967682;28;20038;-87
2021/12/06 04:40:55;;;;;;;8.88;5.47;;;;;;;15.32;41.83;92442.84;5000635;28;20039;-87
2021/12/06 04:43:20;;;;;;;4.28;3.20;;;;;;;15.36;41.61;92446.00;5000191;28;20352;-87
2021/12/06 04:45:46;;;;;;;5.75;3.78;;;;;;;15.33;41.77;92445.03;5000844;28;20074;-87
2021/12/06 04:48:11;;;;;;;8.70;5.82;;;;;;;15.34;41.64;92449.25;5013546;28;20038;-87
2021/12/06 04:50:37;;;;;;;10.50;6.35;;;;;;;15.31;41.70;92446.81;4972528;28;20571;-87
2021/12/06 04:53:06;;;;;;;4.65;3.00;;;;;;;15.31;41.93;92454.97;4990891;28;20109;-87
2021/12/06 04:55:37;;;;;;;6.72;4.32;;;;;;;15.28;41.97;92459.47;4975219;28;20042;-87
2021/12/06 04:58:04;;;;;;;5.80;3.65;;;;;;;15.31;41.68;92463.88;4974899;28;20054;-87
2021/12/06 05:00:34;;;;;;;6.00;3.88;;;;;;;15.33;41.80;92463.38;4959133;28;20038;-91
2021/12/06 05:02:59;;;;;;;6.10;3.55;;;;;;;15.32;41.98;92467.34;5015228;28;20429;-92
2021/12/06 05:05:36;;;;;;;6.97;4.63;;;;;;;15.30;42.23;92470.56;4970803;28;20096;-91
2021/12/06 05:08:13;;;;;;;5.25;2.78;;;;;;;15.30;41.99;92467.13;4990348;28;20512;-92
2021/12/06 05:10:39;;;;;;;7.38;5.72;;;;;;;15.34;41.73;92475.72;5005042;28;20090;-93
2021/12/06 05:13:05;;;;;;;9.15;6.65;;;;;;;15.27;42.08;92471.59;4990224;28;20109;-91
2021/12/06 05:15:31;;;;;;;6.40;4.38;;;;;;;15.32;41.79;92475.50;4977996;28;20061;-91
2021/12/06 05:17:56;;;;;;;7.97;5.05;;;;;;;15.28;41.97;92481.25;4981051;28;20054;-93
2021/12/06 05:20:21;;;;;;;6.30;3.97;;;;;;;15.33;42.12;92469.56;4957056;28;20057;-89
2021/12/06 05:22:47;;;;;;;7.72;4.60;;;;;;;15.35;41.84;92480.66;4989494;28;20038;-91
2021/12/06 05:25:15;;;;;;;6.78;4.40;;;;;;;15.39;42.17;92480.34;4992535;28;20133;-90
2021/12/06 05:27:41;;;;;;;7.53;4.75;;;;;;;15.42;42.19;92480.06;4978762;28;20081;-91
2021/12/06 05:30:08;;;;;;;18.80;10.70;;;;;;;15.39;42.11;92492.00;4997094;28;20038;-91
2021/12/06 05:32:42;;;;;;;14.13;9.05;;;;;;;15.37;41.76;92491.06;4977517;28;20042;-95
2021/12/06 05:35:08;;;;;;;19.27;11.15;;;;;;;15.38;42.11;92495.97;4974708;28;20090;-92
2021/12/06 05:37:47;;;;;;;19.20;8.80;;;;;;;15.44;41.94;92502.09;4981563;28;20038;-91
2021/12/06 05:40:17;;;;;;;25.40;16.05;;;;;;;15.41;41.81;92500.38;4998397;28;20053;-89
2021/12/06 05:42:43;;;;;;;35.80;24.98;;;;;;;15.40;42.17;92501.63;4995346;28;20112;-90
2021/12/06 05:45:10;;;;;;;21.65;11.65;;;;;;;15.53;41.99;92513.88;5011702;28;20359;-94
2021/12/06 05:47:36;;;;;;;16.08;10.93;;;;;;;15.54;41.54;92510.66;4997616;28;20034;-92
2021/12/06 05:50:03;;;;;;;20.23;10.18;;;;;;;15.53;41.55;92513.88;4996807;28;20074;-91
2021/12/06 05:52:28;;;;;;;21.70;11.63;;;;;;;15.53;41.62;92516.59;4985981;28;20037;-92
2021/12/06 05:54:54;;;;;;;25.00;12.65;;;;;;;15.49;41.82;92522.34;4996993;28;20030;-93
2021/12/06 05:57:19;;;;;;;29.27;15.07;;;;;;;15.38;39.24;92528.63;4978683;28;20049;-94
2021/12/06 05:59:46;;;;;;;27.15;12.30;;;;;;;15.23;36.14;92533.75;4975916;28;20078;-92
2021/12/06 06:02:12;;;;;;;30.80;14.90;;;;;;;14.99;35.17;92533.75;4987155;23;20079;-92
2021/12/06 06:05:05;;;;;;;39.22;13.55;;;;;;;14.94;34.08;92540.00;4959937;28;20414;-94
2021/12/06 06:07:31;;;;;;;58.05;23.00;;;;;;;14.96;34.52;92540.94;4953887;28;20066;-90
2021/12/06 06:09:58;;;;;;;91.32;37.95;;;;;;;14.99;35.65;92550.81;4951527;29;20051;-91
2021/12/06 06:12:24;;;;;;;121.50;48.72;;;;;;;15.02;34.95;92552.53;4911082;29;20046;-90
2021/12/06 06:14:50;;;;;;;202.48;74.88;;;;;;;15.03;35.45;92556.00;4948198;28;20035;-92
2021/12/06 06:17:19;;;;;;;146.27;59.38;;;;;;;14.98;35.54;92554.06;4954129;28;20047;-94
2021/12/06 06:19:49;;;;;;;137.70;50.13;;;;;;;15.06;36.19;92563.13;4951518;28;20032;-93
2021/12/06 06:22:15;;;;;;;84.43;33.10;;;;;;;14.96;35.93;92561.97;4952220;28;20040;-92
2021/12/06 06:24:41;;;;;;;85.32;33.38;;;;;;;14.95;35.86;92563.97;4919062;29;20071;-94
2021/12/06 06:27:07;;;;;;;105.15;37.75;;;;;;;14.99;36.38;92560.97;4917154;28;20047;-94
2021/12/06 06:29:35;;;;;;;124.72;44.13;;;;;;;15.05;36.34;92573.28;4936746;29;20036;-91
2021/12/06 06:32:03;;;;;;;156.20;55.50;;;;;;;15.02;37.64;92565.41;4935201;29;20043;-93
2021/12/06 06:34:29;;;;;;;146.15;54.88;;;;;;;15.14;37.91;92580.41;4902424;29;20036;-91
2021/12/06 06:36:54;;;;;;;161.65;71.03;;;;;;;15.14;38.05;92571.50;4965972;28;20039;-88
2021/12/06 06:39:21;;;;;;;172.48;63.03;;;;;;;15.12;37.57;92577.44;4946803;28;20039;-88
2021/12/06 06:41:51;;;;;;;163.95;66.72;;;;;;;15.14;38.04;92572.22;4988225;23;20061;-90
2021/12/06 06:44:20;;;;;;;167.68;72.03;;;;;;;15.19;38.44;92578.84;4963345;28;20038;-91
2021/12/06 06:46:45;;;;;;;171.70;74.03;;;;;;;15.17;38.61;92587.53;4960715;28;20100;-92
2021/12/06 06:50:00;;;;;;;232.10;92.32;;;;;;;15.22;38.59;92583.28;4978865;28;20046;-93
2021/12/06 06:52:32;;;;;;;229.82;99.38;;;;;;;15.31;38.88;92580.97;4991656;28;20054;-93
2021/12/06 06:55:05;;;;;;;252.48;108.80;;;;;;;15.25;38.55;92582.25;4965720;28;20043;-94
2021/12/06 06:57:30;;;;;;;251.10;113.25;;;;;;;15.23;38.73;92590.19;4937057;28;20069;-88
2021/12/06 06:59:56;;;;;;;248.15;106.10;;;;;;;15.25;38.37;92593.16;4951372;28;20646;-92
2021/12/06 07:02:21;;;;;;;273.38;117.80;;;;;;;15.29;38.64;92596.34;4974568;28;20445;-90
2021/12/06 07:04:47;;;;;;;274.30;119.10;;;;;;;15.41;37.91;92594.97;4959917;28;20095;-91
2021/12/06 07:07:12;;;;;;;267.35;114.78;;;;;;;15.37;38.12;92595.25;4972568;28;20455;-88
2021/12/06 07:09:38;;;;;;;280.85;111.68;;;;;;;15.49;39.13;92611.47;4973632;28;20054;-91
2021/12/06 07:12:06;;;;;;;253.35;107.15;;;;;;;15.63;38.66;92618.53;4961522;28;20152;-91
2021/12/06 07:14:39;;;;;;;248.35;109.28;;;;;;;15.63;38.59;92613.81;4995936;28;20397;-91
2021/12/06 07:17:06;;;;;;;237.68;111.28;;;;;;;15.67;38.65;92619.00;4984931;28;20061;-90
2021/12/06 07:19:31;;;;;;;229.20;105.03;;;;;;;15.70;38.43;92617.97;4977462;28;20035;-87
2021/12/06 07:21:57;;;;;;;224.27;93.70;;;;;;;15.73;37.86;92614.22;4994115;28;20826;-89
2021/12/06 07:24:23;;;;;;;207.38;95.90;;;;;;;15.78;38.37;92610.72;4969133;23;20050;-90
2021/12/06 07:26:49;;;;;;;206.38;93.25;;;;;;;15.80;38.54;92621.09;4968843;28;20049;-89
2021/12/06 07:31:40;;;;;;;188.52;87.32;;;;;;;15.69;37.98;92625.41;4996264;23;20039;-91
2021/12/06 07:34:05;;;;;;;179.13;82.47;;;;;;;15.62;38.80;92625.97;4987990;23;20046;-89
2021/12/06 07:36:34;;;;;;;172.13;82.05;;;;;;;15.54;38.40;92624.31;5000785;28;20038;-91
2021/12/06 07:39:11;;;;;;;177.00;79.63;;;;;;;15.60;38.12;92633.91;5023620;28;20042;-93
2021/12/06 07:41:37;;;;;;;213.65;87.97;;;;;;;15.54;38.39;92622.31;4976866;28;20053;-92
2021/12/06 07:44:04;;;;;;;181.30;87.13;;;;;;;15.52;38.51;92637.72;4987567;28;20053;-90
2021/12/06 07:46:29;;;;;;;200.15;89.28;;;;;;;15.44;38.36;92627.38;4973623;23;20105;-95
2021/12/06 07:48:55;;;;;;;199.98;89.88;;;;;;;15.44;38.69;92624.63;4965633;28;20030;-90
2021/12/06 07:51:21;;;;;;;198.57;92.88;;;;;;;15.55;39.00;92640.16;4968598;28;20031;-92
2021/12/06 07:53:47;;;;;;;293.98;124.20;;;;;;;15.65;38.11;92638.56;4970387;28;20481;-92
2021/12/06 07:56:12;;;;;;;230.85;116.25;;;;;;;15.56;38.53;92640.91;4982084;28;20046;-91
2021/12/06 07:58:38;;;;;;;249.73;124.05;;;;;;;15.52;38.61;92638.44;4976047;28;20048;-91
2021/12/06 08:01:03;;;;;;;262.50;124.38;;;;;;;15.56;38.76;92638.94;4957868;28;20042;-91
2021/12/06 08:03:30;;;;;;;289.20;128.68;;;;;;;15.63;38.55;92643.78;4973295;28;20121;-91
2021/12/06 08:05:57;;;;;;;277.27;120.57;;;;;;;15.49;38.26;92636.75;4969976;28;20031;-90
2021/12/06 08:08:25;;;;;;;202.50;90.97;;;;;;;15.52;37.54;92646.63;4972911;28;20046;-90
2021/12/06 08:10:55;;;;;;;205.45;99.60;;;;;;;15.48;37.49;92651.59;4956735;28;20039;-91
2021/12/06 08:13:23;;;;;;;219.80;105.53;;;;;;;15.66;38.07;92642.78;4983748;28;20046;-91
2021/12/06 08:15:53;;;;;;;224.45;102.40;;;;;;;15.60;37.94;92642.09;4967887;28;20508;-93
2021/12/06 08:18:19;;;;;;;220.07;109.97;;;;;;;15.52;38.20;92651.31;4982033;28;20050;-90
2021/12/06 08:20:45;;;;;;;229.13;117.00;;;;;;;15.56;38.50;92651.81;4975204;28;20038;-91
2021/12/06 08:23:10;;;;;;;228.80;113.63;;;;;;;15.58;38.68;92654.78;4953477;28;20035;-89
2021/12/06 08:25:36;;;;;;;221.63;112.75;;;;;;;15.65;39.35;92651.47;4944847;28;20046;-87
2021/12/06 08:28:04;;;;;;;242.55;127.28;;;;;;;15.64;38.44;92660.88;4972999;28;20062;-90
2021/12/06 08:30:29;;;;;;;256.58;138.85;;;;;;;15.62;38.32;92657.94;4972618;28;20576;-87
2021/12/06 08:32:57;;;;;;;341.48;151.60;;;;;;;15.64;38.70;92658.88;4957066;28;20114;-88
2021/12/06 08:35:26;;;;;;;268.08;130.77;;;;;;;15.63;38.41;92659.41;4973687;28;20054;-88
2021/12/06 08:37:51;;;;;;;245.45;126.50;;;;;;;15.71;38.52;92663.03;4937073;29;20047;-89
2021/12/06 08:40:19;;;;;;;272.80;139.93;;;;;;;15.64;38.44;92669.78;4962184;28;20038;-90
2021/12/06 08:42:45;;;;;;;283.60;138.90;;;;;;;15.65;38.54;92668.53;4974664;28;20120;-87
2021/12/06 08:45:10;;;;;;;288.67;145.15;;;;;;;15.68;38.86;92677.69;4990332;28;20460;-88
2021/12/06 08:47:36;;;;;;;274.88;134.40;;;;;;;15.64;38.86;92683.41;4969459;28;20046;-88
2021/12/06 08:50:03;;;;;;;275.83;132.90;;;;;;;15.66;38.59;92683.66;4955664;28;20046;-89
2021/12/06 08:52:29;;;;;;;252.85;130.57;;;;;;;15.75;38.85;92683.31;4955087;28;20161;-88
2021/12/06 08:54:54;;;;;;;250.50;125.82;;;;;;;15.71;38.75;92693.00;4958157;28;20525;-89
2021/12/06 08:57:20;;;;;;;244.38;130.32;;;;;;;15.69;38.61;92690.81;4972523;28;20042;-88
2021/12/06 08:59:45;;;;;;;276.33;134.77;;;;;;;15.72;38.81;92686.31;4957755;28;20105;-89
2021/12/06 09:02:11;;;;;;;277.67;139.50;;;;;;;15.77;38.85;92693.72;4974806;28;20141;-89
2021/12/06 09:04:39;;;;;;;294.25;146.82;;;;;;;15.77;38.86;92702.63;4957544;28;20143;-88
2021/12/06 09:07:12;;;;;;;156.55;81.90;;;;;;;15.59;36.09;92708.72;4971680;28;20062;-89
2021/12/06 09:09:46;;;;;;;160.00;87.10;;;;;;;15.57;36.56;92692.16;4978637;28;20054;-88
2021/12/06 09:12:17;;;;;;;232.32;109.03;;;;;;;15.60;36.41;92704.00;4969735;28;20043;-88
2021/12/06 09:14:43;;;;;;;240.23;123.35;;;;;;;15.62;37.11;92693.34;4961854;28;20106;-89
2021/12/06 09:17:08;;;;;;;257.27;126.38;;;;;;;15.69;36.96;92706.41;4950393;28;20054;-88
2021/12/06 09:19:34;;;;;;;266.60;138.18;;;;;;;15.71;36.92;92706.63;4952709;28;20051;-91
2021/12/06 09:22:00;;;;;;;290.38;150.38;;;;;;;15.77;38.13;92710.78;4971152;28;20042;-88
2021/12/06 09:24:25;;;;;;;270.80;145.57;;;;;;;15.73;38.30;92715.78;4958653;28;20064;-89
2021/12/06 09:26:50;;;;;;;292.27;153.20;;;;;;;15.72;38.43;92713.56;4940744;28;20043;-88
2021/12/06 09:29:16;;;;;;;277.13;143.30;;;;;;;15.70;38.51;92724.22;4969354;28;20524;-88
2021/12/06 09:31:42;;;;;;;284.52;133.93;;;;;;;15.74;38.40;92719.25;4949453;28;20031;-86
2021/12/06 09:34:07;;;;;;;255.77;126.70;;;;;;;15.84;38.92;92714.94;4984307;28;20066;-87
2021/12/06 09:36:33;;;;;;;260.23;131.90;;;;;;;15.85;39.19;92710.94;4936920;28;20035;-86
2021/12/06 09:39:00;;;;;;;186.68;95.95;;;;;;;15.73;37.15;92710.34;4954197;28;20129;-86
2021/12/06 09:41:27;;;;;;;137.38;69.38;;;;;;;15.69;35.36;92712.59;4937213;28;20042;-86
2021/12/06 09:43:55;;;;;;;101.30;37.13;;;;;;;15.46;33.68;92700.41;4966295;28;20042;-87
2021/12/06 09:46:21;;;;;;;61.38;24.50;;;;;;;15.32;33.13;92707.69;4956864;28;20051;-88
2021/12/06 09:48:47;;;;;;;47.45;18.95;;;;;;;15.31;33.29;92703.50;4955235;28;20120;-87
2021/12/06 09:51:17;;;;;;;136.15;29.65;;;;;;;15.33;33.25;92703.00;4952676;28;20126;-88
2021/12/06 09:53:47;;;;;;;110.43;31.20;;;;;;;15.37;33.09;92704.16;4954494;28;20039;-88
2021/12/06 09:56:18;;;;;;;102.85;35.20;;;;;;;15.30;33.46;92701.28;4948258;28;20046;-86
2021/12/06 09:58:44;;;;;;;101.05;39.55;;;;;;;15.36;33.87;92705.44;4954530;28;20047;-85
2021/12/06 10:01:16;;;;;;;115.18;44.67;;;;;;;15.41;33.69;92709.34;4954440;28;20077;-87
2021/12/06 10:03:44;;;;;;;152.90;57.97;;;;;;;15.47;34.25;92704.59;4956224;28;20516;-88
2021/12/06 10:06:10;;;;;;;184.55;80.00;;;;;;;15.50;34.84;92705.56;4958255;28;20090;-85
2021/12/06 10:08:37;;;;;;;175.20;82.57;;;;;;;15.52;35.93;92709.25;4955117;28;20093;-90
2021/12/06 10:11:07;;;;;;;186.80;81.70;;;;;;;15.60;36.14;92704.75;4953967;28;20074;-90
2021/12/06 10:13:32;;;;;;;199.30;92.97;;;;;;;15.60;36.57;92699.28;4980463;28;20069;-90
2021/12/06 10:15:59;;;;;;;197.63;97.57;;;;;;;15.57;36.75;92707.78;4970485;28;21117;-87
2021/12/06 10:18:26;;;;;;;213.18;105.50;;;;;;;15.63;36.73;92708.44;4973201;28;20050;-91
2021/12/06 10:20:51;;;;;;;226.43;102.57;;;;;;;15.64;36.91;92712.66;4964314;28;20038;-90
2021/12/06 10:23:19;;;;;;;226.30;111.38;;;;;;;15.64;36.91;92712.66;4978699;28;20070;-93
2021/12/06 10:25:46;;;;;;;216.23;108.30;;;;;;;15.69;36.69;92712.59;4995865;28;20046;-92
2021/12/06 10:28:11;;;;;;;207.40;102.50;;;;;;;15.63;36.55;92708.44;4955496;28;20039;-90
2021/12/06 10:30:40;;;;;;;249.52;109.60;;;;;;;15.64;36.92;92713.38;4960870;28;20022;-90
2021/12/06 10:33:26;;;;;;;271.90;116.40;;;;;;;15.64;36.91;92713.38;4959584;28;20137;-91
2021/12/06 10:35:57;;;;;;;386.38;114.72;;;;;;;15.64;36.25;92715.38;4972537;28;20035;-90
2021/12/06 10:38:28;;;;;;;245.95;99.90;;;;;;;15.65;36.20;92708.66;4967685;28;20046;-89
2021/12/06 10:41:05;;;;;;;238.15;105.30;;;;;;;15.68;36.43;92713.09;4974419;28;20244;-90
2021/12/06 10:43:31;;;;;;;262.48;119.03;;;;;;;15.67;36.96;92701.47;4954028;28;20114;-89
2021/12/06 10:45:57;;;;;;;213.65;100.72;;;;;;;15.71;38.21;92704.66;4958809;28;20034;-92
2021/12/06 10:49:00;;;;;;;234.70;109.03;;;;;;;15.70;37.16;92713.34;4980110;28;20116;-96
2021/12/06 10:51:28;;;;;;;224.75;101.40;;;;;;;15.68;37.18;92711.13;4925829;28;20043;-91
2021/12/06 10:54:05;;;;;;;246.85;117.85;;;;;;;15.70;36.94;92702.44;4957899;28;20035;-89
2021/12/06 10:56:39;;;;;;;259.27;121.80;;;;;;;15.70;36.92;92700.44;4970773;28;20039;-90
2021/12/06 10:59:18;;;;;;;311.15;141.30;;;;;;;15.77;36.72;92694.44;4958336;28;20043;-87
2021/12/06 11:01:43;;;;;;;272.05;122.35;;;;;;;15.71;36.38;92704.66;4957768;28;20065;-87
2021/12/06 11:04:11;;;;;;;233.73;113.25;;;;;;;15.84;37.64;92695.09;4966231;28;20129;-92
2021/12/06 11:06:42;;;;;;;294.20;136.15;;;;;;;15.89;37.25;92699.78;4971307;28;20130;-89
2021/12/06 11:09:08;;;;;;;301.23;139.82;;;;;;;15.85;36.63;92700.06;4961009;28;20035;-89
2021/12/06 11:11:35;;;;;;;307.38;153.45;;;;;;;15.84;36.72;92692.38;4936423;28;20041;-88
2021/12/06 11:14:07;;;;;;;290.38;152.43;;;;;;;15.90;38.04;92693.06;4975355;28;20404;-88
2021/12/06 11:16:39;;;;;;;285.40;146.82;;;;;;;15.96;37.36;92691.03;4938896;28;20049;-85
2021/12/06 11:19:08;;;;;;;290.52;151.80;;;;;;;15.98;37.28;92694.00;4976358;28;20300;-87
2021/12/06 11:21:42;;;;;;;286.48;147.20;;;;;;;15.95;37.17;92698.47;4974584;28;20493;-90
2021/12/06 11:24:10;;;;;;;254.55;131.02;;;;;;;15.92;37.05;92691.31;4974425;28;20039;-89
2021/12/06 11:26:41;;;;;;;265.83;134.98;;;;;;;15.92;36.95;92702.22;4977211;28;20114;-93
2021/12/06 11:29:09;;;;;;;240.63;130.98;;;;;;;16.02;37.26;92699.91;4960920;28;20042;-89
2021/12/06 11:31:35;;;;;;;224.25;118.05;;;;;;;15.98;36.70;92699.44;4977536;28;20035;-87
2021/12/06 11:34:03;;;;;;;152.32;86.05;;;;;;;15.90;36.80;92703.97;4956024;28;20086;-90
2021/12/06 11:36:30;;;;;;;129.05;67.95;;;;;;;15.97;36.17;92701.44;4956498;28;20038;-91
2021/12/06 11:39:01;;;;;;;143.35;80.50;;;;;;;16.02;35.96;92697.88;4957032;28;20107;-88
2021/12/06 11:41:29;;;;;;;163.88;88.57;;;;;;;16.05;35.98;92698.84;4972353;28;20561;-90
2021/12/06 11:43:57;;;;;;;168.75;86.28;;;;;;;16.06;36.24;92703.06;4956787;28;20169;-88